sensor_id;sensor_type;location;lat;lon;timestamp;P1;durP1;ratioP1;P2;durP2;ratioP2
3311;SDS011;1668;49.648;8.570;2022-11-15T00:01:34;7.53;;;4.13;;
3311;SDS011;1668;49.648;8.570;2022-11-15T00:04:02;6.33;;;4.67;;
3311;SDS011;1668;49.648;8.570;2022-11-15T00:06:30;7.50;;;4.07;;
3311;SDS011;1668;49.648;8.570;2022-11-15T00:08:58;7.53;;;4.23;;
3311;SDS011;1668;49.648;8.570;2022-11-15T00:11:25;6.80;;;4.40;;
3311;SDS011;1668;49.648;8.570;2022-11-15T00:13:54;6.03;;;4.53;;
3311;SDS011;1668;49.648;8.570;2022-11-15T00:16:22;6.87;;;4.80;;
3311;SDS011;1668;49.648;8.570;2022-11-15T00:18:49;7.80;;;5.33;;
3311;SDS011;1668;49.648;8.570;2022-11-15T00:21:17;8.50;;;5.10;;
3311;SDS011;1668;49.648;8.570;2022-11-15T00:23:45;9.60;;;5.37;;
3311;SDS011;1668;49.648;8.570;2022-11-15T00:26:13;7.77;;;5.03;;
3311;SDS011;1668;49.648;8.570;2022-11-15T00:28:41;7.27;;;5.47;;
3311;SDS011;1668;49.648;8.570;2022-11-15T00:31:09;6.43;;;4.67;;
3311;SDS011;1668;49.648;8.570;2022-11-15T00:33:39;7.50;;;4.60;;
3311;SDS011;1668;49.648;8.570;2022-11-15T00:36:06;6.10;;;4.40;;
3311;SDS011;1668;49.648;8.570;2022-11-15T00:38:36;7.80;;;4.77;;
3311;SDS011;1668;49.648;8.570;2022-11-15T00:41:06;6.30;;;3.60;;
3311;SDS011;1668;49.648;8.570;2022-11-15T00:43:33;5.27;;;3.93;;
3311;SDS011;1668;49.648;8.570;2022-11-15T00:46:00;5.77;;;3.83;;
3311;SDS011;1668;49.648;8.570;2022-11-15T00:48:28;5.63;;;4.27;;
3311;SDS011;1668;49.648;8.570;2022-11-15T00:50:56;6.27;;;4.07;;
3311;SDS011;1668;49.648;8.570;2022-11-15T00:53:23;5.00;;;3.83;;
3311;SDS011;1668;49.648;8.570;2022-11-15T00:55:50;4.20;;;3.60;;
3311;SDS011;1668;49.648;8.570;2022-11-15T00:58:18;5.53;;;4.17;;
3311;SDS011;1668;49.648;8.570;2022-11-15T01:00:45;7.20;;;3.63;;
3311;SDS011;1668;49.648;8.570;2022-11-15T01:03:12;5.73;;;3.90;;
3311;SDS011;1668;49.648;8.570;2022-11-15T01:05:39;8.30;;;4.33;;
3311;SDS011;1668;49.648;8.570;2022-11-15T01:08:10;5.67;;;4.13;;
3311;SDS011;1668;49.648;8.570;2022-11-15T01:10:38;5.07;;;3.30;;
3311;SDS011;1668;49.648;8.570;2022-11-15T01:13:05;5.83;;;4.30;;
3311;SDS011;1668;49.648;8.570;2022-11-15T01:15:34;4.93;;;4.00;;
3311;SDS011;1668;49.648;8.570;2022-11-15T01:18:04;5.20;;;3.53;;
3311;SDS011;1668;49.648;8.570;2022-11-15T01:20:31;5.90;;;3.60;;
3311;SDS011;1668;49.648;8.570;2022-11-15T01:22:58;5.73;;;3.90;;
3311;SDS011;1668;49.648;8.570;2022-11-15T01:25:25;6.93;;;4.40;;
3311;SDS011;1668;49.648;8.570;2022-11-15T01:27:52;6.30;;;4.00;;
3311;SDS011;1668;49.648;8.570;2022-11-15T01:30:19;6.07;;;3.73;;
3311;SDS011;1668;49.648;8.570;2022-11-15T01:32:47;6.23;;;3.77;;
3311;SDS011;1668;49.648;8.570;2022-11-15T01:35:14;4.83;;;3.67;;
3311;SDS011;1668;49.648;8.570;2022-11-15T01:37:41;6.30;;;3.90;;
3311;SDS011;1668;49.648;8.570;2022-11-15T01:40:08;4.50;;;3.50;;
3311;SDS011;1668;49.648;8.570;2022-11-15T01:42:36;5.40;;;3.80;;
3311;SDS011;1668;49.648;8.570;2022-11-15T01:45:03;5.80;;;3.70;;
3311;SDS011;1668;49.648;8.570;2022-11-15T01:47:31;5.33;;;3.80;;
3311;SDS011;1668;49.648;8.570;2022-11-15T01:50:03;4.80;;;3.80;;
3311;SDS011;1668;49.648;8.570;2022-11-15T01:52:32;6.23;;;3.70;;
3311;SDS011;1668;49.648;8.570;2022-11-15T01:55:02;5.03;;;3.67;;
3311;SDS011;1668;49.648;8.570;2022-11-15T01:57:32;4.27;;;3.37;;
3311;SDS011;1668;49.648;8.570;2022-11-15T02:00:00;6.50;;;3.90;;
3311;SDS011;1668;49.648;8.570;2022-11-15T02:02:29;4.40;;;3.40;;
3311;SDS011;1668;49.648;8.570;2022-11-15T02:04:56;6.90;;;3.87;;
3311;SDS011;1668;49.648;8.570;2022-11-15T02:07:25;6.03;;;4.30;;
3311;SDS011;1668;49.648;8.570;2022-11-15T02:09:52;6.10;;;3.90;;
3311;SDS011;1668;49.648;8.570;2022-11-15T02:12:20;6.00;;;4.10;;
3311;SDS011;1668;49.648;8.570;2022-11-15T02:14:48;4.53;;;3.20;;
3311;SDS011;1668;49.648;8.570;2022-11-15T02:17:27;6.30;;;3.73;;
3311;SDS011;1668;49.648;8.570;2022-11-15T02:20:18;7.83;;;3.77;;
3311;SDS011;1668;49.648;8.570;2022-11-15T02:23:21;4.77;;;3.60;;
3311;SDS011;1668;49.648;8.570;2022-11-15T02:26:07;4.77;;;3.63;;
3311;SDS011;1668;49.648;8.570;2022-11-15T02:28:49;3.80;;;3.40;;
3311;SDS011;1668;49.648;8.570;2022-11-15T02:31:27;8.77;;;4.33;;
3311;SDS011;1668;49.648;8.570;2022-11-15T02:34:02;4.80;;;3.43;;
3311;SDS011;1668;49.648;8.570;2022-11-15T02:36:36;6.03;;;4.00;;
3311;SDS011;1668;49.648;8.570;2022-11-15T02:39:10;5.60;;;3.40;;
3311;SDS011;1668;49.648;8.570;2022-11-15T02:41:45;5.33;;;3.33;;
3311;SDS011;1668;49.648;8.570;2022-11-15T02:44:16;4.60;;;3.50;;
3311;SDS011;1668;49.648;8.570;2022-11-15T02:46:49;4.83;;;3.20;;
3311;SDS011;1668;49.648;8.570;2022-11-15T02:49:36;4.90;;;3.50;;
3311;SDS011;1668;49.648;8.570;2022-11-15T02:52:05;4.27;;;3.50;;
3311;SDS011;1668;49.648;8.570;2022-11-15T02:54:32;6.23;;;3.40;;
3311;SDS011;1668;49.648;8.570;2022-11-15T02:57:01;7.30;;;3.97;;
3311;SDS011;1668;49.648;8.570;2022-11-15T02:59:39;4.37;;;3.03;;
3311;SDS011;1668;49.648;8.570;2022-11-15T03:02:27;6.37;;;3.60;;
3311;SDS011;1668;49.648;8.570;2022-11-15T03:05:09;6.70;;;3.50;;
3311;SDS011;1668;49.648;8.570;2022-11-15T03:07:46;5.30;;;3.67;;
3311;SDS011;1668;49.648;8.570;2022-11-15T03:10:21;6.50;;;3.70;;
3311;SDS011;1668;49.648;8.570;2022-11-15T03:12:54;6.50;;;3.63;;
3311;SDS011;1668;49.648;8.570;2022-11-15T03:15:24;5.90;;;3.73;;
3311;SDS011;1668;49.648;8.570;2022-11-15T03:17:57;6.03;;;3.70;;
3311;SDS011;1668;49.648;8.570;2022-11-15T03:20:26;5.70;;;3.47;;
3311;SDS011;1668;49.648;8.570;2022-11-15T03:22:55;6.17;;;3.70;;
3311;SDS011;1668;49.648;8.570;2022-11-15T03:25:26;5.77;;;3.97;;
3311;SDS011;1668;49.648;8.570;2022-11-15T03:27:55;6.17;;;3.63;;
3311;SDS011;1668;49.648;8.570;2022-11-15T03:30:28;8.30;;;3.97;;
3311;SDS011;1668;49.648;8.570;2022-11-15T03:32:58;8.10;;;3.50;;
3311;SDS011;1668;49.648;8.570;2022-11-15T03:35:27;6.00;;;3.77;;
3311;SDS011;1668;49.648;8.570;2022-11-15T03:37:57;4.90;;;3.07;;
3311;SDS011;1668;49.648;8.570;2022-11-15T03:40:30;5.50;;;3.67;;
3311;SDS011;1668;49.648;8.570;2022-11-15T03:43:04;6.13;;;4.17;;
3311;SDS011;1668;49.648;8.570;2022-11-15T03:45:38;4.63;;;3.70;;
3311;SDS011;1668;49.648;8.570;2022-11-15T03:48:12;5.93;;;4.10;;
3311;SDS011;1668;49.648;8.570;2022-11-15T03:50:42;5.70;;;4.20;;
3311;SDS011;1668;49.648;8.570;2022-11-15T03:53:10;9.40;;;4.57;;
3311;SDS011;1668;49.648;8.570;2022-11-15T03:55:37;5.90;;;4.40;;
3311;SDS011;1668;49.648;8.570;2022-11-15T03:58:04;6.37;;;3.90;;
3311;SDS011;1668;49.648;8.570;2022-11-15T04:00:31;4.90;;;3.83;;
3311;SDS011;1668;49.648;8.570;2022-11-15T04:02:58;6.50;;;4.00;;
3311;SDS011;1668;49.648;8.570;2022-11-15T04:05:27;5.63;;;3.60;;
3311;SDS011;1668;49.648;8.570;2022-11-15T04:07:53;6.87;;;4.53;;
3311;SDS011;1668;49.648;8.570;2022-11-15T04:10:20;5.60;;;3.50;;
3311;SDS011;1668;49.648;8.570;2022-11-15T04:12:47;5.17;;;3.80;;
3311;SDS011;1668;49.648;8.570;2022-11-15T04:15:15;6.30;;;3.90;;
3311;SDS011;1668;49.648;8.570;2022-11-15T04:17:44;6.23;;;3.43;;
3311;SDS011;1668;49.648;8.570;2022-11-15T04:20:14;3.83;;;3.33;;
3311;SDS011;1668;49.648;8.570;2022-11-15T04:23:01;4.57;;;3.77;;
3311;SDS011;1668;49.648;8.570;2022-11-15T04:25:48;4.90;;;3.77;;
3311;SDS011;1668;49.648;8.570;2022-11-15T04:28:17;6.00;;;3.70;;
3311;SDS011;1668;49.648;8.570;2022-11-15T04:30:44;5.43;;;3.80;;
3311;SDS011;1668;49.648;8.570;2022-11-15T04:33:11;5.80;;;3.83;;
3311;SDS011;1668;49.648;8.570;2022-11-15T04:35:38;4.83;;;3.77;;
3311;SDS011;1668;49.648;8.570;2022-11-15T04:38:07;5.20;;;3.53;;
3311;SDS011;1668;49.648;8.570;2022-11-15T04:40:34;5.60;;;3.47;;
3311;SDS011;1668;49.648;8.570;2022-11-15T04:43:01;5.17;;;3.70;;
3311;SDS011;1668;49.648;8.570;2022-11-15T04:45:28;6.53;;;4.17;;
3311;SDS011;1668;49.648;8.570;2022-11-15T04:47:55;6.77;;;4.13;;
3311;SDS011;1668;49.648;8.570;2022-11-15T04:50:22;5.03;;;3.70;;
3311;SDS011;1668;49.648;8.570;2022-11-15T04:52:50;5.80;;;4.27;;
3311;SDS011;1668;49.648;8.570;2022-11-15T04:55:20;5.03;;;3.90;;
3311;SDS011;1668;49.648;8.570;2022-11-15T04:57:47;5.93;;;4.20;;
3311;SDS011;1668;49.648;8.570;2022-11-15T05:00:22;5.67;;;3.90;;
3311;SDS011;1668;49.648;8.570;2022-11-15T05:02:49;4.93;;;3.87;;
3311;SDS011;1668;49.648;8.570;2022-11-15T05:05:35;4.63;;;3.70;;
3311;SDS011;1668;49.648;8.570;2022-11-15T05:08:02;6.03;;;3.90;;
3311;SDS011;1668;49.648;8.570;2022-11-15T05:10:30;5.60;;;3.43;;
3311;SDS011;1668;49.648;8.570;2022-11-15T05:12:57;5.33;;;3.67;;
3311;SDS011;1668;49.648;8.570;2022-11-15T05:15:24;5.03;;;3.97;;
3311;SDS011;1668;49.648;8.570;2022-11-15T05:17:53;5.20;;;4.03;;
3311;SDS011;1668;49.648;8.570;2022-11-15T05:20:23;5.40;;;4.03;;
3311;SDS011;1668;49.648;8.570;2022-11-15T05:22:50;6.20;;;4.27;;
3311;SDS011;1668;49.648;8.570;2022-11-15T05:25:18;5.10;;;3.73;;
3311;SDS011;1668;49.648;8.570;2022-11-15T05:27:46;5.50;;;4.30;;
3311;SDS011;1668;49.648;8.570;2022-11-15T05:30:15;6.10;;;3.83;;
3311;SDS011;1668;49.648;8.570;2022-11-15T05:32:42;6.87;;;3.90;;
3311;SDS011;1668;49.648;8.570;2022-11-15T05:35:11;5.00;;;4.07;;
3311;SDS011;1668;49.648;8.570;2022-11-15T05:37:40;6.63;;;4.13;;
3311;SDS011;1668;49.648;8.570;2022-11-15T05:40:08;6.00;;;4.40;;
3311;SDS011;1668;49.648;8.570;2022-11-15T05:42:35;5.27;;;4.03;;
3311;SDS011;1668;49.648;8.570;2022-11-15T05:45:04;7.43;;;4.90;;
3311;SDS011;1668;49.648;8.570;2022-11-15T05:47:32;6.63;;;4.60;;
3311;SDS011;1668;49.648;8.570;2022-11-15T05:50:02;7.20;;;4.50;;
3311;SDS011;1668;49.648;8.570;2022-11-15T05:52:30;9.60;;;5.53;;
3311;SDS011;1668;49.648;8.570;2022-11-15T05:55:00;8.77;;;5.40;;
3311;SDS011;1668;49.648;8.570;2022-11-15T05:57:28;6.93;;;4.43;;
3311;SDS011;1668;49.648;8.570;2022-11-15T05:59:55;6.23;;;4.47;;
3311;SDS011;1668;49.648;8.570;2022-11-15T06:02:24;7.30;;;4.93;;
3311;SDS011;1668;49.648;8.570;2022-11-15T06:04:51;5.53;;;4.30;;
3311;SDS011;1668;49.648;8.570;2022-11-15T06:07:17;6.63;;;4.67;;
3311;SDS011;1668;49.648;8.570;2022-11-15T06:09:44;6.40;;;4.57;;
3311;SDS011;1668;49.648;8.570;2022-11-15T06:12:11;7.00;;;5.13;;
3311;SDS011;1668;49.648;8.570;2022-11-15T06:14:39;7.10;;;5.00;;
3311;SDS011;1668;49.648;8.570;2022-11-15T06:17:06;6.37;;;4.33;;
3311;SDS011;1668;49.648;8.570;2022-11-15T06:19:34;7.33;;;4.60;;
3311;SDS011;1668;49.648;8.570;2022-11-15T06:22:01;8.30;;;4.70;;
3311;SDS011;1668;49.648;8.570;2022-11-15T06:24:28;5.53;;;4.27;;
3311;SDS011;1668;49.648;8.570;2022-11-15T06:26:55;5.20;;;4.30;;
3311;SDS011;1668;49.648;8.570;2022-11-15T06:29:22;8.90;;;4.60;;
3311;SDS011;1668;49.648;8.570;2022-11-15T06:31:49;6.60;;;4.27;;
3311;SDS011;1668;49.648;8.570;2022-11-15T06:34:16;5.60;;;4.10;;
3311;SDS011;1668;49.648;8.570;2022-11-15T06:36:44;4.47;;;3.80;;
3311;SDS011;1668;49.648;8.570;2022-11-15T06:39:11;7.27;;;4.40;;
3311;SDS011;1668;49.648;8.570;2022-11-15T06:41:38;7.27;;;4.30;;
3311;SDS011;1668;49.648;8.570;2022-11-15T06:44:05;6.93;;;4.07;;
3311;SDS011;1668;49.648;8.570;2022-11-15T06:46:33;6.63;;;4.20;;
3311;SDS011;1668;49.648;8.570;2022-11-15T06:49:00;6.40;;;4.63;;
3311;SDS011;1668;49.648;8.570;2022-11-15T06:51:27;5.87;;;3.97;;
3311;SDS011;1668;49.648;8.570;2022-11-15T06:53:56;5.77;;;4.37;;
3311;SDS011;1668;49.648;8.570;2022-11-15T06:56:23;6.70;;;4.20;;
3311;SDS011;1668;49.648;8.570;2022-11-15T06:58:49;6.07;;;4.33;;
3311;SDS011;1668;49.648;8.570;2022-11-15T07:01:16;7.00;;;4.40;;
3311;SDS011;1668;49.648;8.570;2022-11-15T07:03:43;5.33;;;4.03;;
3311;SDS011;1668;49.648;8.570;2022-11-15T07:06:11;6.40;;;4.37;;
3311;SDS011;1668;49.648;8.570;2022-11-15T07:08:38;6.80;;;4.43;;
3311;SDS011;1668;49.648;8.570;2022-11-15T07:11:08;8.67;;;4.40;;
3311;SDS011;1668;49.648;8.570;2022-11-15T07:13:35;5.80;;;4.00;;
3311;SDS011;1668;49.648;8.570;2022-11-15T07:16:06;5.20;;;3.67;;
3311;SDS011;1668;49.648;8.570;2022-11-15T07:18:34;6.10;;;4.40;;
3311;SDS011;1668;49.648;8.570;2022-11-15T07:21:02;5.90;;;4.13;;
3311;SDS011;1668;49.648;8.570;2022-11-15T07:23:30;5.50;;;4.47;;
3311;SDS011;1668;49.648;8.570;2022-11-15T07:25:58;5.70;;;4.07;;
3311;SDS011;1668;49.648;8.570;2022-11-15T07:28:27;8.63;;;4.67;;
3311;SDS011;1668;49.648;8.570;2022-11-15T07:30:54;6.17;;;4.63;;
3311;SDS011;1668;49.648;8.570;2022-11-15T07:33:21;6.13;;;4.80;;
3311;SDS011;1668;49.648;8.570;2022-11-15T07:35:48;7.77;;;4.30;;
3311;SDS011;1668;49.648;8.570;2022-11-15T07:38:15;6.60;;;4.50;;
3311;SDS011;1668;49.648;8.570;2022-11-15T07:40:44;5.97;;;4.17;;
3311;SDS011;1668;49.648;8.570;2022-11-15T07:43:12;5.10;;;4.27;;
3311;SDS011;1668;49.648;8.570;2022-11-15T07:45:41;5.13;;;3.90;;
3311;SDS011;1668;49.648;8.570;2022-11-15T07:48:09;6.67;;;4.40;;
3311;SDS011;1668;49.648;8.570;2022-11-15T07:50:36;5.77;;;4.50;;
3311;SDS011;1668;49.648;8.570;2022-11-15T07:53:03;7.53;;;5.07;;
3311;SDS011;1668;49.648;8.570;2022-11-15T07:55:30;8.80;;;5.20;;
3311;SDS011;1668;49.648;8.570;2022-11-15T07:58:00;8.20;;;5.17;;
3311;SDS011;1668;49.648;8.570;2022-11-15T08:00:28;10.57;;;5.90;;
3311;SDS011;1668;49.648;8.570;2022-11-15T08:03:02;16.40;;;9.60;;
3311;SDS011;1668;49.648;8.570;2022-11-15T08:05:30;10.57;;;7.87;;
3311;SDS011;1668;49.648;8.570;2022-11-15T08:07:57;9.67;;;7.70;;
3311;SDS011;1668;49.648;8.570;2022-11-15T08:10:24;38.17;;;19.33;;
3311;SDS011;1668;49.648;8.570;2022-11-15T08:12:56;47.80;;;22.37;;
3311;SDS011;1668;49.648;8.570;2022-11-15T08:15:24;44.30;;;20.77;;
3311;SDS011;1668;49.648;8.570;2022-11-15T08:17:55;46.60;;;19.73;;
3311;SDS011;1668;49.648;8.570;2022-11-15T08:20:24;49.80;;;21.13;;
3311;SDS011;1668;49.648;8.570;2022-11-15T08:22:54;51.67;;;21.90;;
3311;SDS011;1668;49.648;8.570;2022-11-15T08:25:21;28.33;;;13.07;;
3311;SDS011;1668;49.648;8.570;2022-11-15T08:27:51;14.17;;;8.20;;
3311;SDS011;1668;49.648;8.570;2022-11-15T08:30:18;12.73;;;7.73;;
3311;SDS011;1668;49.648;8.570;2022-11-15T08:32:45;12.70;;;6.90;;
3311;SDS011;1668;49.648;8.570;2022-11-15T08:35:12;10.50;;;6.17;;
3311;SDS011;1668;49.648;8.570;2022-11-15T08:37:40;9.60;;;5.13;;
3311;SDS011;1668;49.648;8.570;2022-11-15T08:40:08;7.40;;;4.93;;
3311;SDS011;1668;49.648;8.570;2022-11-15T08:42:35;8.90;;;5.13;;
3311;SDS011;1668;49.648;8.570;2022-11-15T08:45:02;8.23;;;5.70;;
3311;SDS011;1668;49.648;8.570;2022-11-15T08:47:29;7.70;;;5.97;;
3311;SDS011;1668;49.648;8.570;2022-11-15T08:49:56;8.63;;;5.53;;
3311;SDS011;1668;49.648;8.570;2022-11-15T08:52:23;9.57;;;5.00;;
3311;SDS011;1668;49.648;8.570;2022-11-15T08:54:52;10.03;;;5.13;;
3311;SDS011;1668;49.648;8.570;2022-11-15T08:57:19;6.90;;;4.37;;
3311;SDS011;1668;49.648;8.570;2022-11-15T08:59:46;9.10;;;5.10;;
3311;SDS011;1668;49.648;8.570;2022-11-15T09:02:13;5.90;;;4.70;;
3311;SDS011;1668;49.648;8.570;2022-11-15T09:04:40;8.70;;;4.87;;
3311;SDS011;1668;49.648;8.570;2022-11-15T09:07:07;6.93;;;5.10;;
3311;SDS011;1668;49.648;8.570;2022-11-15T09:09:35;8.03;;;5.00;;
3311;SDS011;1668;49.648;8.570;2022-11-15T09:12:05;6.60;;;5.47;;
3311;SDS011;1668;49.648;8.570;2022-11-15T09:14:32;12.97;;;8.70;;
3311;SDS011;1668;49.648;8.570;2022-11-15T09:17:00;22.03;;;10.30;;
3311;SDS011;1668;49.648;8.570;2022-11-15T09:19:28;23.63;;;11.87;;
3311;SDS011;1668;49.648;8.570;2022-11-15T09:21:55;21.17;;;10.97;;
3311;SDS011;1668;49.648;8.570;2022-11-15T09:24:22;29.70;;;12.47;;
3311;SDS011;1668;49.648;8.570;2022-11-15T09:26:49;16.40;;;10.33;;
3311;SDS011;1668;49.648;8.570;2022-11-15T09:29:18;16.80;;;10.00;;
3311;SDS011;1668;49.648;8.570;2022-11-15T09:31:45;12.40;;;6.90;;
3311;SDS011;1668;49.648;8.570;2022-11-15T09:34:12;9.80;;;5.97;;
3311;SDS011;1668;49.648;8.570;2022-11-15T09:36:39;10.30;;;6.83;;
3311;SDS011;1668;49.648;8.570;2022-11-15T09:39:06;11.23;;;6.07;;
3311;SDS011;1668;49.648;8.570;2022-11-15T09:41:42;8.70;;;5.40;;
3311;SDS011;1668;49.648;8.570;2022-11-15T09:44:27;8.20;;;5.13;;
3311;SDS011;1668;49.648;8.570;2022-11-15T09:47:27;7.53;;;5.67;;
3311;SDS011;1668;49.648;8.570;2022-11-15T09:50:08;8.23;;;5.97;;
3311;SDS011;1668;49.648;8.570;2022-11-15T09:52:37;6.87;;;5.00;;
3311;SDS011;1668;49.648;8.570;2022-11-15T09:55:08;11.43;;;4.67;;
3311;SDS011;1668;49.648;8.570;2022-11-15T09:57:41;6.87;;;4.70;;
3311;SDS011;1668;49.648;8.570;2022-11-15T10:00:17;6.57;;;4.20;;
3311;SDS011;1668;49.648;8.570;2022-11-15T10:02:56;7.10;;;4.77;;
3311;SDS011;1668;49.648;8.570;2022-11-15T10:05:37;8.17;;;5.80;;
3311;SDS011;1668;49.648;8.570;2022-11-15T10:08:10;7.57;;;5.30;;
3311;SDS011;1668;49.648;8.570;2022-11-15T10:10:49;8.97;;;6.07;;
3311;SDS011;1668;49.648;8.570;2022-11-15T10:13:19;16.50;;;8.60;;
3311;SDS011;1668;49.648;8.570;2022-11-15T10:15:51;8.70;;;5.60;;
3311;SDS011;1668;49.648;8.570;2022-11-15T10:18:24;11.57;;;6.90;;
3311;SDS011;1668;49.648;8.570;2022-11-15T10:20:58;11.83;;;6.40;;
3311;SDS011;1668;49.648;8.570;2022-11-15T10:23:26;7.90;;;5.73;;
3311;SDS011;1668;49.648;8.570;2022-11-15T10:25:54;7.27;;;5.07;;
3311;SDS011;1668;49.648;8.570;2022-11-15T10:28:25;7.43;;;5.47;;
3311;SDS011;1668;49.648;8.570;2022-11-15T10:30:55;9.50;;;5.67;;
3311;SDS011;1668;49.648;8.570;2022-11-15T10:33:26;10.03;;;6.50;;
3311;SDS011;1668;49.648;8.570;2022-11-15T10:36:20;7.37;;;4.80;;
3311;SDS011;1668;49.648;8.570;2022-11-15T10:38:52;4.50;;;3.80;;
3311;SDS011;1668;49.648;8.570;2022-11-15T10:41:28;9.40;;;4.20;;
3311;SDS011;1668;49.648;8.570;2022-11-15T10:47:04;4.83;;;3.30;;
3311;SDS011;1668;49.648;8.570;2022-11-15T10:49:52;4.73;;;3.40;;
3311;SDS011;1668;49.648;8.570;2022-11-15T10:52:20;6.47;;;2.90;;
3311;SDS011;1668;49.648;8.570;2022-11-15T10:54:50;8.70;;;2.90;;
3311;SDS011;1668;49.648;8.570;2022-11-15T10:57:20;4.07;;;3.20;;
3311;SDS011;1668;49.648;8.570;2022-11-15T10:59:51;5.77;;;3.27;;
3311;SDS011;1668;49.648;8.570;2022-11-15T11:02:28;5.07;;;2.70;;
3311;SDS011;1668;49.648;8.570;2022-11-15T11:04:57;4.10;;;3.07;;
3311;SDS011;1668;49.648;8.570;2022-11-15T11:07:25;4.27;;;3.20;;
3311;SDS011;1668;49.648;8.570;2022-11-15T11:09:57;5.00;;;3.77;;
3311;SDS011;1668;49.648;8.570;2022-11-15T11:12:29;6.57;;;3.87;;
3311;SDS011;1668;49.648;8.570;2022-11-15T11:14:58;5.57;;;4.00;;
3311;SDS011;1668;49.648;8.570;2022-11-15T11:17:32;5.10;;;3.53;;
3311;SDS011;1668;49.648;8.570;2022-11-15T11:20:10;7.27;;;3.27;;
3311;SDS011;1668;49.648;8.570;2022-11-15T11:22:50;5.50;;;3.63;;
3311;SDS011;1668;49.648;8.570;2022-11-15T11:25:28;4.63;;;3.50;;
3311;SDS011;1668;49.648;8.570;2022-11-15T11:28:05;16.17;;;3.53;;
3311;SDS011;1668;49.648;8.570;2022-11-15T11:30:58;5.90;;;3.10;;
3311;SDS011;1668;49.648;8.570;2022-11-15T11:33:37;4.67;;;2.80;;
3311;SDS011;1668;49.648;8.570;2022-11-15T11:36:13;5.17;;;2.80;;
3311;SDS011;1668;49.648;8.570;2022-11-15T11:38:53;5.23;;;2.60;;
3311;SDS011;1668;49.648;8.570;2022-11-15T11:41:38;3.43;;;2.60;;
3311;SDS011;1668;49.648;8.570;2022-11-15T11:44:27;5.10;;;2.93;;
3311;SDS011;1668;49.648;8.570;2022-11-15T11:47:00;4.23;;;2.60;;
3311;SDS011;1668;49.648;8.570;2022-11-15T11:49:34;4.73;;;2.80;;
3311;SDS011;1668;49.648;8.570;2022-11-15T11:52:08;5.93;;;2.77;;
3311;SDS011;1668;49.648;8.570;2022-11-15T11:54:42;5.33;;;3.30;;
3311;SDS011;1668;49.648;8.570;2022-11-15T11:57:17;3.50;;;2.80;;
3311;SDS011;1668;49.648;8.570;2022-11-15T11:59:53;3.13;;;2.70;;
3311;SDS011;1668;49.648;8.570;2022-11-15T12:02:27;4.17;;;2.90;;
3311;SDS011;1668;49.648;8.570;2022-11-15T12:05:01;3.40;;;2.60;;
3311;SDS011;1668;49.648;8.570;2022-11-15T12:07:34;3.53;;;2.77;;
3311;SDS011;1668;49.648;8.570;2022-11-15T12:10:04;7.10;;;3.67;;
3311;SDS011;1668;49.648;8.570;2022-11-15T12:12:41;6.60;;;3.57;;
3311;SDS011;1668;49.648;8.570;2022-11-15T12:15:14;4.70;;;3.70;;
3311;SDS011;1668;49.648;8.570;2022-11-15T12:17:44;3.73;;;3.13;;
3311;SDS011;1668;49.648;8.570;2022-11-15T12:20:17;5.60;;;2.80;;
3311;SDS011;1668;49.648;8.570;2022-11-15T12:22:47;3.63;;;2.40;;
3311;SDS011;1668;49.648;8.570;2022-11-15T12:25:20;4.20;;;2.63;;
3311;SDS011;1668;49.648;8.570;2022-11-15T12:27:52;6.90;;;3.20;;
3311;SDS011;1668;49.648;8.570;2022-11-15T12:30:23;5.40;;;3.37;;
3311;SDS011;1668;49.648;8.570;2022-11-15T12:33:14;5.97;;;3.27;;
3311;SDS011;1668;49.648;8.570;2022-11-15T12:36:01;7.73;;;2.97;;
3311;SDS011;1668;49.648;8.570;2022-11-15T12:41:17;6.00;;;2.80;;
3311;SDS011;1668;49.648;8.570;2022-11-15T12:43:45;4.00;;;2.63;;
3311;SDS011;1668;49.648;8.570;2022-11-15T12:46:19;4.27;;;2.83;;
3311;SDS011;1668;49.648;8.570;2022-11-15T12:49:11;3.83;;;2.40;;
3311;SDS011;1668;49.648;8.570;2022-11-15T12:52:08;3.93;;;2.43;;
3311;SDS011;1668;49.648;8.570;2022-11-15T12:54:50;3.83;;;2.50;;
3311;SDS011;1668;49.648;8.570;2022-11-15T12:57:37;5.73;;;3.00;;
3311;SDS011;1668;49.648;8.570;2022-11-15T13:03:16;4.20;;;2.53;;
3311;SDS011;1668;49.648;8.570;2022-11-15T13:05:53;4.93;;;2.30;;
3311;SDS011;1668;49.648;8.570;2022-11-15T13:08:42;6.10;;;2.63;;
3311;SDS011;1668;49.648;8.570;2022-11-15T13:17:16;3.50;;;2.00;;
3311;SDS011;1668;49.648;8.570;2022-11-15T13:20:09;5.60;;;3.03;;
3311;SDS011;1668;49.648;8.570;2022-11-15T13:22:45;4.87;;;3.37;;
3311;SDS011;1668;49.648;8.570;2022-11-15T13:28:31;5.83;;;2.63;;
3311;SDS011;1668;49.648;8.570;2022-11-15T13:31:03;4.10;;;2.90;;
3311;SDS011;1668;49.648;8.570;2022-11-15T13:33:46;3.40;;;2.60;;
3311;SDS011;1668;49.648;8.570;2022-11-15T13:36:13;3.73;;;3.30;;
3311;SDS011;1668;49.648;8.570;2022-11-15T13:38:44;5.13;;;3.57;;
3311;SDS011;1668;49.648;8.570;2022-11-15T13:41:22;4.97;;;3.47;;
3311;SDS011;1668;49.648;8.570;2022-11-15T13:43:52;8.30;;;4.70;;
3311;SDS011;1668;49.648;8.570;2022-11-15T13:46:20;6.27;;;3.60;;
3311;SDS011;1668;49.648;8.570;2022-11-15T13:48:51;7.50;;;3.30;;
3311;SDS011;1668;49.648;8.570;2022-11-15T13:51:23;4.83;;;3.33;;
3311;SDS011;1668;49.648;8.570;2022-11-15T13:53:54;6.77;;;3.30;;
3311;SDS011;1668;49.648;8.570;2022-11-15T13:56:24;3.90;;;2.50;;
3311;SDS011;1668;49.648;8.570;2022-11-15T13:58:54;4.33;;;2.37;;
3311;SDS011;1668;49.648;8.570;2022-11-15T14:01:21;4.10;;;2.40;;
3311;SDS011;1668;49.648;8.570;2022-11-15T14:03:53;6.00;;;3.07;;
3311;SDS011;1668;49.648;8.570;2022-11-15T14:06:23;3.17;;;2.47;;
3311;SDS011;1668;49.648;8.570;2022-11-15T14:09:04;5.40;;;2.70;;
3311;SDS011;1668;49.648;8.570;2022-11-15T14:11:50;6.23;;;3.80;;
3311;SDS011;1668;49.648;8.570;2022-11-15T14:14:20;5.67;;;3.33;;
3311;SDS011;1668;49.648;8.570;2022-11-15T14:16:49;6.90;;;2.77;;
3311;SDS011;1668;49.648;8.570;2022-11-15T14:19:36;4.10;;;2.60;;
3311;SDS011;1668;49.648;8.570;2022-11-15T14:22:09;4.70;;;2.17;;
3311;SDS011;1668;49.648;8.570;2022-11-15T14:24:38;4.40;;;2.17;;
3311;SDS011;1668;49.648;8.570;2022-11-15T14:27:16;3.87;;;2.43;;
3311;SDS011;1668;49.648;8.570;2022-11-15T14:29:46;3.70;;;2.67;;
3311;SDS011;1668;49.648;8.570;2022-11-15T14:32:14;6.90;;;2.50;;
3311;SDS011;1668;49.648;8.570;2022-11-15T14:34:43;3.20;;;2.57;;
3311;SDS011;1668;49.648;8.570;2022-11-15T14:37:16;3.50;;;2.80;;
3311;SDS011;1668;49.648;8.570;2022-11-15T14:39:47;3.30;;;2.73;;
3311;SDS011;1668;49.648;8.570;2022-11-15T14:42:14;4.20;;;2.33;;
3311;SDS011;1668;49.648;8.570;2022-11-15T14:44:41;3.27;;;2.67;;
3311;SDS011;1668;49.648;8.570;2022-11-15T14:47:09;6.47;;;2.90;;
3311;SDS011;1668;49.648;8.570;2022-11-15T14:49:36;6.23;;;2.67;;
3311;SDS011;1668;49.648;8.570;2022-11-15T14:52:07;5.60;;;2.87;;
3311;SDS011;1668;49.648;8.570;2022-11-15T14:54:43;4.80;;;2.87;;
3311;SDS011;1668;49.648;8.570;2022-11-15T14:57:10;4.00;;;2.90;;
3311;SDS011;1668;49.648;8.570;2022-11-15T14:59:37;8.17;;;3.63;;
3311;SDS011;1668;49.648;8.570;2022-11-15T15:02:08;8.33;;;3.40;;
3311;SDS011;1668;49.648;8.570;2022-11-15T15:04:41;4.70;;;2.73;;
3311;SDS011;1668;49.648;8.570;2022-11-15T15:07:07;5.23;;;3.53;;
3311;SDS011;1668;49.648;8.570;2022-11-15T15:09:34;6.53;;;3.40;;
3311;SDS011;1668;49.648;8.570;2022-11-15T15:12:01;5.83;;;3.30;;
3311;SDS011;1668;49.648;8.570;2022-11-15T15:14:28;9.43;;;3.70;;
3311;SDS011;1668;49.648;8.570;2022-11-15T15:16:55;6.80;;;3.20;;
3311;SDS011;1668;49.648;8.570;2022-11-15T15:19:23;4.40;;;3.50;;
3311;SDS011;1668;49.648;8.570;2022-11-15T15:21:50;8.10;;;4.00;;
3311;SDS011;1668;49.648;8.570;2022-11-15T15:24:17;5.73;;;3.50;;
3311;SDS011;1668;49.648;8.570;2022-11-15T15:26:44;7.03;;;3.87;;
3311;SDS011;1668;49.648;8.570;2022-11-15T15:29:10;6.27;;;4.50;;
3311;SDS011;1668;49.648;8.570;2022-11-15T15:31:37;7.97;;;4.30;;
3311;SDS011;1668;49.648;8.570;2022-11-15T15:34:05;7.53;;;4.70;;
3311;SDS011;1668;49.648;8.570;2022-11-15T15:36:33;7.30;;;4.63;;
3311;SDS011;1668;49.648;8.570;2022-11-15T15:39:00;6.47;;;4.60;;
3311;SDS011;1668;49.648;8.570;2022-11-15T15:41:27;7.77;;;5.53;;
3311;SDS011;1668;49.648;8.570;2022-11-15T15:43:54;7.47;;;5.20;;
3311;SDS011;1668;49.648;8.570;2022-11-15T15:46:21;8.90;;;5.50;;
3311;SDS011;1668;49.648;8.570;2022-11-15T15:48:48;10.43;;;5.30;;
3311;SDS011;1668;49.648;8.570;2022-11-15T15:51:15;8.50;;;6.00;;
3311;SDS011;1668;49.648;8.570;2022-11-15T15:53:43;11.77;;;5.20;;